Time;durP1;ratioP1;P1;durP2;ratioP2;P2;SDS_P1;SDS_P2;PMS_P1;PMS_P2;Temp;Humidity;BMP_temperature;BMP_pressure;BME280_temperature;BME280_humidity;BME280_pressure;Samples;Min_cycle;Max_cycle;Signal;HPM_P1;HPM_P2
2022/03/19 00:01:42;;;;;;;49.83;22.13;;;;;;;8.19;88.51;102197.75;5112637;28;20074;-67
2022/03/19 00:04:07;;;;;;;49.85;23.58;;;;;;;8.18;88.09;102196.84;5112889;28;20031;-67
2022/03/19 00:06:37;;;;;;;50.00;23.83;;;;;;;8.16;88.31;102192.38;5112691;28;20026;-66
2022/03/19 00:09:05;;;;;;;43.20;20.88;;;;;;;8.16;88.55;102187.97;5112459;28;20028;-66
2022/03/19 00:11:31;;;;;;;48.75;22.00;;;;;;;8.18;88.46;102186.25;5112809;28;20016;-66
2022/03/19 00:13:56;;;;;;;51.00;23.55;;;;;;;8.14;88.58;102188.84;5112585;28;20673;-66
2022/03/19 00:16:22;;;;;;;46.78;20.25;;;;;;;8.10;88.58;102192.31;5102482;28;20119;-66
2022/03/19 00:18:48;;;;;;;43.47;21.77;;;;;;;8.07;88.88;102191.41;5110951;28;20042;-66
2022/03/19 00:21:14;;;;;;;50.03;22.48;;;;;;;8.10;88.43;102190.56;5109272;28;20028;-66
2022/03/19 00:23:40;;;;;;;46.80;22.42;;;;;;;8.08;88.70;102192.31;5096310;28;20077;-66
2022/03/19 00:26:07;;;;;;;42.28;20.17;;;;;;;8.03;89.27;102186.97;5091904;28;20036;-67
2022/03/19 00:28:33;;;;;;;51.00;23.20;;;;;;;8.04;89.28;102182.53;5092008;28;20059;-66
2022/03/19 00:30:59;;;;;;;56.88;23.02;;;;;;;8.03;89.48;102189.59;5091826;28;20452;-66
2022/03/19 00:33:25;;;;;;;55.30;23.75;;;;;;;7.99;89.26;102184.22;5094523;28;20051;-66
2022/03/19 00:35:50;;;;;;;49.88;23.70;;;;;;;7.97;89.45;102181.56;5091662;28;20117;-66
2022/03/19 00:38:16;;;;;;;50.75;23.90;;;;;;;7.97;89.40;102181.56;5092123;28;20439;-66
2022/03/19 00:40:43;;;;;;;53.08;23.25;;;;;;;7.94;89.44;102189.47;5093979;28;20487;-66
2022/03/19 00:43:09;;;;;;;52.58;22.55;;;;;;;7.89;89.72;102183.22;5092267;28;20047;-66
2022/03/19 00:45:34;;;;;;;50.08;23.02;;;;;;;7.87;89.82;102184.97;5104636;28;20020;-66
2022/03/19 00:48:00;;;;;;;49.28;24.63;;;;;;;7.81;90.49;102181.34;5093225;28;20102;-66
2022/03/19 00:50:25;;;;;;;52.42;23.45;;;;;;;7.76;90.65;102186.59;5111758;28;20119;-66
2022/03/19 00:52:53;;;;;;;50.33;23.13;;;;;;;7.67;90.37;102160.00;5102711;28;20042;-66
2022/03/19 00:55:19;;;;;;;50.50;24.23;;;;;;;7.72;90.48;102184.78;5091168;28;20031;-66
2022/03/19 00:57:46;;;;;;;54.05;24.10;;;;;;;7.76;91.01;102176.00;5091447;28;20034;-66
2022/03/19 01:00:15;;;;;;;56.47;22.95;;;;;;;7.75;90.65;102179.53;5099637;28;20038;-66
2022/03/19 01:02:42;;;;;;;55.88;24.15;;;;;;;7.70;90.53;102170.63;5105654;28;20028;-66
2022/03/19 01:05:10;;;;;;;53.65;24.00;;;;;;;7.72;90.57;102179.50;5104543;28;20019;-66
2022/03/19 01:07:50;;;;;;;47.60;23.17;;;;;;;7.69;91.21;102174.13;5111937;28;20107;-66
2022/03/19 01:10:21;;;;;;;53.22;23.02;;;;;;;7.70;90.97;102178.56;5111079;28;20102;-66
2022/03/19 01:12:48;;;;;;;45.00;21.15;;;;;;;7.66;91.13;102174.09;5111867;28;20023;-66
2022/03/19 01:15:15;;;;;;;51.00;22.73;;;;;;;7.63;90.29;102171.41;5110894;28;20028;-67
2022/03/19 01:17:41;;;;;;;50.80;24.77;;;;;;;7.62;91.40;102177.59;5098385;28;20032;-67
2022/03/19 01:20:10;;;;;;;51.17;24.95;;;;;;;7.59;91.20;102168.72;5090683;28;20114;-67
2022/03/19 01:22:39;;;;;;;55.63;23.65;;;;;;;7.66;91.23;102173.22;5090672;28;20042;-67
2022/03/19 01:25:06;;;;;;;54.90;23.70;;;;;;;7.63;91.08;102174.06;5093558;28;20477;-67
2022/03/19 01:27:32;;;;;;;50.83;22.05;;;;;;;7.59;91.09;102174.00;5093377;28;20024;-66
2022/03/19 01:29:58;;;;;;;51.72;22.45;;;;;;;7.57;91.49;102171.34;5097915;28;20031;-66
2022/03/19 01:32:23;;;;;;;53.35;23.55;;;;;;;7.60;91.53;102166.06;5110213;28;20019;-66
2022/03/19 01:34:49;;;;;;;53.78;26.45;;;;;;;7.56;91.26;102169.53;5110561;28;20043;-66
2022/03/19 01:37:15;;;;;;;51.92;22.17;;;;;;;7.60;90.86;102165.19;5111388;28;20041;-66
2022/03/19 01:39:40;;;;;;;51.83;22.73;;;;;;;7.55;90.96;102158.94;5092740;28;20483;-66
2022/03/19 01:42:06;;;;;;;54.35;22.38;;;;;;;7.55;91.01;102165.13;5110747;28;20034;-66
2022/03/19 01:44:32;;;;;;;50.38;22.38;;;;;;;7.53;91.84;102166.84;5092455;28;20100;-66
2022/03/19 01:47:03;;;;;;;48.75;22.80;;;;;;;7.59;91.58;102166.97;5110741;28;20026;-66
2022/03/19 01:49:30;;;;;;;52.03;23.17;;;;;;;7.58;90.77;102156.31;5110647;28;20374;-67
2022/03/19 01:51:56;;;;;;;48.63;22.98;;;;;;;7.55;90.83;102149.22;5106538;28;20292;-66
2022/03/19 01:54:32;;;;;;;48.67;22.98;;;;;;;7.56;91.05;102158.06;5090874;28;20390;-67
2022/03/19 01:56:58;;;;;;;46.78;22.10;;;;;;;7.44;91.24;102150.84;5072325;28;20080;-67
2022/03/19 01:59:26;;;;;;;51.22;24.83;;;;;;;7.49;91.60;102162.41;5090466;28;20032;-67
2022/03/19 02:01:52;;;;;;;52.50;23.65;;;;;;;7.51;90.75;102155.34;5111065;28;20515;-67
2022/03/19 02:04:19;;;;;;;49.63;21.83;;;;;;;7.40;91.68;102146.38;5092558;28;20032;-66
2022/03/19 02:06:45;;;;;;;43.13;21.33;;;;;;;7.45;91.78;102146.44;5110536;28;20102;-67
2022/03/19 02:09:11;;;;;;;51.50;22.80;;;;;;;7.47;91.21;102150.88;5109838;28;20493;-66
2022/03/19 02:11:37;;;;;;;50.30;24.77;;;;;;;7.44;91.26;102139.34;5110006;28;20027;-66
2022/03/19 02:14:03;;;;;;;50.63;22.77;;;;;;;7.49;91.09;102143.88;5110492;28;20058;-66
2022/03/19 02:16:29;;;;;;;55.33;24.83;;;;;;;7.45;90.75;102142.03;5106726;28;20017;-66
2022/03/19 02:19:01;;;;;;;51.45;23.00;;;;;;;7.47;90.56;102145.59;5089831;28;20075;-66
2022/03/19 02:21:38;;;;;;;50.78;21.90;;;;;;;7.45;90.75;102151.72;5070813;28;20028;-66
2022/03/19 02:26:48;;;;;;;47.40;22.52;;;;;;;7.48;90.94;102154.44;5089622;28;20453;-66
2022/03/19 02:29:13;;;;;;;52.50;21.73;;;;;;;7.45;90.43;102152.63;5089437;28;20024;-66
2022/03/19 02:31:40;;;;;;;45.70;22.35;;;;;;;7.45;90.52;102152.63;5092136;28;20108;-66
2022/03/19 02:34:08;;;;;;;46.58;22.20;;;;;;;7.47;90.74;102156.19;5089934;28;20412;-66
2022/03/19 02:36:40;;;;;;;51.45;22.02;;;;;;;7.43;90.54;102149.06;5090391;28;20028;-66
2022/03/19 02:39:28;;;;;;;54.45;22.52;;;;;;;7.40;90.65;102143.72;5109678;28;20482;-66
2022/03/19 02:41:55;;;;;;;52.60;24.10;;;;;;;7.37;91.23;102142.78;5105749;28;20023;-66
2022/03/19 02:44:20;;;;;;;51.70;24.52;;;;;;;7.41;90.34;102144.63;5108772;28;20474;-66
2022/03/19 02:46:51;;;;;;;47.55;22.92;;;;;;;7.41;90.43;102144.63;5109325;28;20027;-66
2022/03/19 02:49:17;;;;;;;49.38;22.08;;;;;;;7.30;89.99;102130.31;5109425;28;20421;-66
2022/03/19 02:51:47;;;;;;;49.72;23.25;;;;;;;7.38;90.48;102148.09;5088077;28;20042;-66
2022/03/19 02:54:15;;;;;;;50.25;21.75;;;;;;;7.37;90.44;102146.34;5089665;28;20028;-66
2022/03/19 02:56:42;;;;;;;44.50;22.13;;;;;;;7.32;90.35;102142.72;5089115;28;20028;-66
2022/03/19 02:59:20;;;;;;;56.78;22.17;;;;;;;7.31;90.53;102140.97;5088982;28;20016;-66
2022/03/19 03:01:54;;;;;;;47.90;21.42;;;;;;;7.31;90.38;102142.72;5089054;28;20106;-67
2022/03/19 03:04:20;;;;;;;44.40;23.17;;;;;;;7.32;90.73;102140.06;5089714;28;20404;-67
2022/03/19 03:06:49;;;;;;;45.85;20.92;;;;;;;7.26;89.88;102124.13;5088972;28;20107;-67
2022/03/19 03:09:17;;;;;;;58.20;23.83;;;;;;;7.32;90.50;102134.78;5088875;28;20115;-67
2022/03/19 03:11:43;;;;;;;44.45;21.60;;;;;;;7.39;89.44;102136.66;5088762;28;20077;-67
2022/03/19 03:14:10;;;;;;;46.38;22.45;;;;;;;7.28;90.17;102130.28;5089448;28;20036;-67
2022/03/19 03:16:37;;;;;;;38.35;18.85;;;;;;;7.28;90.05;102127.66;5075492;28;20067;-67
2022/03/19 03:19:05;;;;;;;44.75;22.25;;;;;;;7.22;90.40;102122.28;5104822;28;20051;-67
2022/03/19 03:21:33;;;;;;;55.78;23.58;;;;;;;7.23;90.50;102129.34;5106962;28;20514;-67
2022/03/19 03:23:59;;;;;;;48.08;22.73;;;;;;;7.17;90.56;102134.56;5093475;28;20166;-67
2022/03/19 03:26:25;;;;;;;53.25;22.33;;;;;;;7.17;91.00;102118.69;5092992;28;20123;-67
2022/03/19 03:28:51;;;;;;;50.08;21.67;;;;;;;7.18;90.64;102123.09;5093020;28;20043;-66
2022/03/19 03:31:17;;;;;;;45.22;20.48;;;;;;;7.14;90.77;102117.75;5093597;28;20028;-66
2022/03/19 03:33:43;;;;;;;43.50;21.17;;;;;;;7.20;91.07;102124.00;5096205;28;20020;-67
2022/03/19 03:36:08;;;;;;;44.45;20.55;;;;;;;7.21;91.20;102122.25;5093584;28;20054;-66
2022/03/19 03:38:34;;;;;;;46.50;22.10;;;;;;;7.17;91.25;102113.38;5093435;28;20014;-66
2022/03/19 03:40:59;;;;;;;47.05;20.70;;;;;;;7.08;90.99;102113.28;5092721;28;20024;-67
2022/03/19 03:43:25;;;;;;;45.75;21.52;;;;;;;7.16;90.84;102116.91;5093607;28;20039;-67
2022/03/19 03:45:50;;;;;;;48.25;21.63;;;;;;;7.14;90.74;102113.34;5092982;28;20024;-67
2022/03/19 03:48:16;;;;;;;47.22;23.50;;;;;;;7.08;91.26;102115.91;5093225;28;20035;-66
2022/03/19 03:50:42;;;;;;;45.38;21.73;;;;;;;7.02;91.39;102118.44;5093063;28;20020;-66
2022/03/19 03:53:07;;;;;;;48.83;22.50;;;;;;;6.92;92.12;102105.94;5094379;28;20042;-67
2022/03/19 03:55:34;;;;;;;39.72;20.45;;;;;;;7.00;92.09;102112.22;5092542;28;20035;-67
2022/03/19 03:58:00;;;;;;;47.88;21.60;;;;;;;7.06;91.00;102103.50;5093137;28;20095;-66
2022/03/19 04:00:27;;;;;;;45.70;21.83;;;;;;;7.03;90.92;102104.38;5103126;28;20277;-66
2022/03/19 04:02:52;;;;;;;44.42;21.08;;;;;;;7.00;91.73;102101.66;5113227;28;20506;-67
2022/03/19 04:05:18;;;;;;;43.78;21.98;;;;;;;6.98;91.26;102095.47;5113041;28;20028;-67
2022/03/19 04:07:43;;;;;;;44.67;21.67;;;;;;;6.99;91.39;102102.53;5113443;28;20024;-67
2022/03/19 04:10:09;;;;;;;48.85;21.80;;;;;;;6.93;91.59;102097.16;5113092;28;20027;-67
2022/03/19 04:12:36;;;;;;;45.03;21.88;;;;;;;6.89;91.36;102090.03;5113275;28;20040;-67
2022/03/19 04:15:01;;;;;;;48.22;20.05;;;;;;;7.00;90.87;102098.13;5112617;28;20015;-66
2022/03/19 04:17:27;;;;;;;43.20;20.83;;;;;;;7.00;90.71;102099.00;5101297;28;20455;-66
2022/03/19 04:19:52;;;;;;;42.20;21.50;;;;;;;7.00;90.74;102091.06;5105336;28;20050;-67
2022/03/19 04:22:18;;;;;;;46.38;20.73;;;;;;;6.91;91.04;102080.38;5109221;28;20084;-67
2022/03/19 04:24:43;;;;;;;43.35;20.02;;;;;;;7.01;90.50;102095.50;5092301;28;20028;-67
2022/03/19 04:27:10;;;;;;;45.58;21.33;;;;;;;6.99;90.90;102097.25;5092429;28;20020;-67
2022/03/19 04:29:36;;;;;;;45.15;22.38;;;;;;;6.84;90.82;102072.31;5092220;28;20391;-67
2022/03/19 04:32:01;;;;;;;43.95;18.95;;;;;;;6.87;91.39;102075.00;5073575;28;20062;-67
2022/03/19 04:34:27;;;;;;;43.75;20.92;;;;;;;6.97;90.77;102095.44;5092614;28;20035;-67
2022/03/19 04:36:53;;;;;;;44.17;20.02;;;;;;;6.98;90.66;102090.19;5073906;28;20027;-67
2022/03/19 04:39:19;;;;;;;41.47;20.15;;;;;;;6.94;90.65;102085.69;5091770;28;20024;-67
2022/03/19 04:41:44;;;;;;;47.28;21.77;;;;;;;6.90;90.94;102081.25;5103963;28;20531;-68
2022/03/19 04:44:10;;;;;;;53.45;20.77;;;;;;;6.89;91.06;102084.75;5094447;28;20085;-67
2022/03/19 04:46:36;;;;;;;43.60;19.70;;;;;;;6.88;90.27;102077.69;5112438;28;20023;-67
2022/03/19 04:49:02;;;;;;;52.45;20.85;;;;;;;6.84;91.76;102091.72;5108759;28;20098;-67
2022/03/19 04:51:33;;;;;;;54.45;22.38;;;;;;;6.87;91.12;102091.75;5111987;28;20106;-67
2022/03/19 04:54:00;;;;;;;43.58;20.33;;;;;;;6.92;91.20;102100.66;5093261;28;20028;-66
2022/03/19 04:56:27;;;;;;;49.55;21.13;;;;;;;6.92;91.29;102090.06;5091857;28;20099;-66
2022/03/19 04:58:55;;;;;;;64.60;22.20;;;;;;;6.91;91.20;102085.66;5091552;28;20027;-66
2022/03/19 05:01:21;;;;;;;45.88;21.75;;;;;;;6.89;90.67;102090.03;5108713;28;20027;-66
2022/03/19 05:03:46;;;;;;;47.03;19.92;;;;;;;6.91;90.33;102090.03;5111900;28;20039;-66
2022/03/19 05:06:12;;;;;;;52.35;21.98;;;;;;;6.86;90.46;102082.06;5112004;28;20073;-66
2022/03/19 05:08:38;;;;;;;46.60;21.73;;;;;;;6.89;90.91;102090.03;5112279;28;20035;-66
2022/03/19 05:11:13;;;;;;;46.53;21.98;;;;;;;6.84;90.53;102086.41;5111440;28;20019;-66
2022/03/19 05:13:47;;;;;;;47.55;23.42;;;;;;;6.84;90.11;102074.97;5112500;28;20432;-66
2022/03/19 05:16:13;;;;;;;54.00;22.98;;;;;;;6.86;90.08;102083.78;5110822;28;20027;-66
2022/03/19 05:18:39;;;;;;;89.15;23.77;;;;;;;6.91;90.36;102087.41;5099733;28;20089;-67
2022/03/19 05:21:04;;;;;;;52.67;22.05;;;;;;;6.89;90.02;102089.13;5107996;28;20028;-66
2022/03/19 05:23:30;;;;;;;46.92;19.80;;;;;;;6.90;89.57;102096.22;5096372;28;20386;-66
2022/03/19 05:25:57;;;;;;;45.20;20.50;;;;;;;6.87;90.09;102078.53;5091329;28;20432;-67
2022/03/19 05:28:22;;;;;;;45.50;21.70;;;;;;;6.86;89.72;102084.69;5091440;28;20423;-66
2022/03/19 05:30:48;;;;;;;47.17;21.58;;;;;;;6.84;89.71;102082.91;5093385;28;20046;-66
2022/03/19 05:33:15;;;;;;;50.42;22.80;;;;;;;6.77;90.20;102078.38;5091430;28;20111;-66
2022/03/19 05:35:41;;;;;;;40.80;19.40;;;;;;;6.80;89.92;102074.03;5091144;28;20024;-66
2022/03/19 05:38:08;;;;;;;46.20;22.58;;;;;;;6.82;89.72;102077.56;5091283;28;20116;-66
2022/03/19 05:40:34;;;;;;;42.33;22.42;;;;;;;6.80;90.06;102084.63;5090726;28;20024;-66
2022/03/19 05:43:00;;;;;;;48.92;22.30;;;;;;;6.80;89.95;102081.06;5090965;28;20688;-66
2022/03/19 05:45:26;;;;;;;46.20;20.67;;;;;;;6.79;89.89;102072.22;5090119;28;20020;-66
2022/03/19 05:47:51;;;;;;;43.65;20.05;;;;;;;6.80;89.74;102071.38;5090426;28;20042;-66
2022/03/19 05:50:17;;;;;;;48.10;21.95;;;;;;;6.78;89.52;102062.53;5090601;28;20485;-66
2022/03/19 05:52:46;;;;;;;47.05;20.98;;;;;;;6.88;89.12;102075.03;5090843;28;20028;-66
2022/03/19 05:55:13;;;;;;;46.47;21.88;;;;;;;6.89;89.16;102071.50;5091075;28;20039;-66
2022/03/19 05:57:40;;;;;;;41.13;19.35;;;;;;;6.90;88.34;102068.03;5090657;28;20081;-66
2022/03/19 06:00:08;;;;;;;48.30;22.35;;;;;;;6.98;88.26;102068.13;5075707;28;20393;-66
2022/03/19 06:02:38;;;;;;;42.47;20.42;;;;;;;6.99;87.72;102061.94;5090816;28;20024;-66
2022/03/19 06:05:04;;;;;;;47.15;20.63;;;;;;;7.12;87.82;102075.38;5072219;28;20024;-66
2022/03/19 06:07:29;;;;;;;45.03;21.83;;;;;;;7.28;87.30;102077.38;5090328;28;20016;-66
2022/03/19 06:09:56;;;;;;;46.38;22.05;;;;;;;7.47;87.04;102065.25;5090372;28;20077;-66
2022/03/19 06:12:22;;;;;;;46.88;22.30;;;;;;;7.93;84.44;102073.78;5090813;28;20638;-66
2022/03/19 06:14:53;;;;;;;43.72;21.40;;;;;;;8.75;80.28;102053.31;5090377;28;20099;-66
2022/03/19 06:17:18;;;;;;;40.35;21.13;;;;;;;9.57;76.15;102055.56;5100362;28;20077;-66
2022/03/19 06:19:44;;;;;;;49.30;21.90;;;;;;;9.98;70.39;102048.59;5097304;28;20052;-66
2022/03/19 06:22:09;;;;;;;45.72;20.35;;;;;;;10.51;68.04;102065.56;5091399;28;20475;-66
2022/03/19 06:24:34;;;;;;;39.35;19.63;;;;;;;10.95;65.44;102054.00;5072344;28;20111;-67
2022/03/19 06:27:00;;;;;;;38.35;18.80;;;;;;;11.37;62.83;102064.53;5090161;28;20023;-66
2022/03/19 06:29:25;;;;;;;45.30;19.25;;;;;;;11.75;60.51;102057.31;5089898;28;20519;-67
2022/03/19 06:31:51;;;;;;;46.90;19.58;;;;;;;11.96;59.83;102051.84;5090202;28;20040;-67
2022/03/19 06:34:17;;;;;;;45.60;20.60;;;;;;;12.41;57.14;102051.56;5090224;28;20489;-66
2022/03/19 06:39:26;;;;;;;39.53;19.75;;;;;;;12.61;56.63;102044.28;5089879;28;20073;-66
2022/03/19 06:41:51;;;;;;;37.88;17.35;;;;;;;12.78;55.67;102061.00;5092524;28;20024;-66
2022/03/19 06:44:16;;;;;;;38.92;17.80;;;;;;;12.91;56.41;102060.03;5089723;28;20046;-66
2022/03/19 06:46:42;;;;;;;38.15;18.63;;;;;;;13.28;55.13;102057.88;5089750;28;20035;-66
2022/03/19 06:49:07;;;;;;;34.00;18.60;;;;;;;13.91;53.35;102059.75;5092354;28;20125;-66
2022/03/19 06:51:33;;;;;;;37.10;18.13;;;;;;;14.20;52.15;102057.53;5092190;28;20024;-66
2022/03/19 06:53:58;;;;;;;34.53;16.63;;;;;;;14.92;50.06;102071.56;5089659;28;20395;-66
2022/03/19 06:56:24;;;;;;;36.13;18.48;;;;;;;14.45;50.90;102050.94;5089410;28;20088;-66
2022/03/19 06:58:49;;;;;;;35.40;17.35;;;;;;;14.80;49.88;102045.00;5071646;28;20111;-66
2022/03/19 07:01:15;;;;;;;38.97;17.83;;;;;;;15.09;49.63;102063.22;5106661;28;20045;-67
2022/03/19 07:03:45;;;;;;;32.78;17.23;;;;;;;14.96;48.83;102067.91;5110415;28;20028;-67
2022/03/19 07:06:11;;;;;;;36.10;18.25;;;;;;;14.91;49.78;102052.84;5091557;28;20378;-67
2022/03/19 07:08:39;;;;;;;34.45;17.92;;;;;;;15.15;49.08;102063.09;5110281;28;20138;-67
2022/03/19 07:11:05;;;;;;;36.88;18.35;;;;;;;14.77;49.00;102061.13;5091646;28;20039;-67
2022/03/19 07:13:31;;;;;;;37.55;18.00;;;;;;;14.29;49.59;102056.56;5109096;28;20475;-67
2022/03/19 07:15:59;;;;;;;34.17;17.38;;;;;;;15.70;48.74;102047.69;5109348;28;20098;-67
2022/03/19 07:18:25;;;;;;;36.17;17.10;;;;;;;15.94;46.60;102047.19;5090182;28;20048;-67
2022/03/19 07:20:50;;;;;;;37.88;17.90;;;;;;;15.57;46.42;102055.13;5089022;28;20028;-67
2022/03/19 07:23:16;;;;;;;35.28;18.73;;;;;;;15.40;46.79;102059.94;5089715;28;20073;-67
2022/03/19 07:25:43;;;;;;;35.70;17.73;;;;;;;15.01;47.63;102049.94;5089729;28;20426;-67
2022/03/19 07:28:20;;;;;;;35.33;16.98;;;;;;;15.54;46.98;102051.63;5092215;28;20489;-67
2022/03/19 07:30:47;;;;;;;37.35;17.90;;;;;;;15.68;46.82;102050.41;5091492;28;20099;-67
2022/03/19 07:33:13;;;;;;;38.28;18.90;;;;;;;15.81;45.99;102043.00;5089335;28;20024;-67
2022/03/19 07:35:40;;;;;;;37.88;17.38;;;;;;;16.23;45.69;102033.06;5089306;28;20023;-67
2022/03/19 07:38:06;;;;;;;40.60;18.50;;;;;;;16.27;45.26;102034.78;5092380;28;20022;-67
2022/03/19 07:43:19;;;;;;;37.38;19.90;;;;;;;16.29;46.02;102038.31;5089782;28;20039;-67
2022/03/19 07:45:44;;;;;;;31.60;17.20;;;;;;;17.14;44.76;102037.91;5087609;28;20048;-67
2022/03/19 07:48:10;;;;;;;36.90;18.63;;;;;;;16.70;44.39;102039.09;5071252;28;20059;-68
2022/03/19 07:50:38;;;;;;;39.83;19.23;;;;;;;16.47;44.35;102037.91;5088919;28;20658;-67
2022/03/19 07:53:05;;;;;;;40.47;18.63;;;;;;;16.06;44.71;102046.03;5088889;28;20027;-67
2022/03/19 07:55:31;;;;;;;35.70;17.90;;;;;;;16.18;45.92;102051.09;5088528;28;20096;-67
2022/03/19 07:57:56;;;;;;;34.85;17.83;;;;;;;16.25;45.15;102026.75;5089643;28;20195;-67
2022/03/19 08:00:22;;;;;;;36.72;18.70;;;;;;;16.01;45.89;102031.81;5098490;28;20075;-67
2022/03/19 08:02:48;;;;;;;32.47;16.48;;;;;;;15.66;46.60;102032.59;5109289;28;20056;-67
2022/03/19 08:05:13;;;;;;;41.40;19.48;;;;;;;16.21;45.32;102024.19;5091055;28;20074;-67
2022/03/19 08:07:39;;;;;;;37.67;20.50;;;;;;;16.12;46.02;102027.09;5111660;28;20044;-67
2022/03/19 08:10:06;;;;;;;31.60;17.55;;;;;;;15.90;45.92;102029.38;5103881;28;20095;-67
2022/03/19 08:12:32;;;;;;;37.95;18.08;;;;;;;15.96;46.51;102017.63;5091870;28;20032;-67
2022/03/19 08:14:59;;;;;;;35.05;18.10;;;;;;;15.93;47.21;102018.56;5092636;28;20039;-67
2022/03/19 08:17:26;;;;;;;35.72;17.50;;;;;;;16.35;45.51;102022.03;5103792;28;20569;-67
2022/03/19 08:19:52;;;;;;;34.58;18.30;;;;;;;16.24;45.89;102016.97;5112815;28;20077;-67
2022/03/19 08:22:17;;;;;;;34.05;17.52;;;;;;;16.42;45.41;102010.25;5108246;28;20039;-67
2022/03/19 08:24:42;;;;;;;40.88;19.42;;;;;;;16.29;45.47;102011.47;5094653;28;20019;-67
2022/03/19 08:27:09;;;;;;;34.85;19.13;;;;;;;16.35;45.49;102017.56;5093323;28;20055;-67
2022/03/19 08:29:35;;;;;;;35.85;18.60;;;;;;;16.39;44.86;102016.56;5109755;28;20415;-67
2022/03/19 08:32:01;;;;;;;33.20;18.13;;;;;;;16.09;45.29;102024.47;5112649;28;20031;-67
2022/03/19 08:34:27;;;;;;;34.78;17.70;;;;;;;15.97;45.90;102014.00;5109594;28;20034;-67
2022/03/19 08:36:52;;;;;;;36.63;17.60;;;;;;;15.77;46.03;102009.09;5112668;28;20031;-67
2022/03/19 08:42:02;;;;;;;32.30;17.20;;;;;;;16.29;44.60;102017.69;5112105;28;20089;-67
2022/03/19 08:44:28;;;;;;;37.70;18.33;;;;;;;16.76;44.06;102014.75;5111480;28;20043;-67
2022/03/19 08:46:53;;;;;;;39.00;18.73;;;;;;;16.81;43.86;102020.00;5094203;28;20471;-67
2022/03/19 08:49:20;;;;;;;31.92;17.73;;;;;;;16.82;43.26;102008.31;5106332;28;20024;-67
2022/03/19 08:51:45;;;;;;;31.65;16.60;;;;;;;16.85;44.26;102021.69;5092516;28;20035;-67
2022/03/19 08:54:16;;;;;;;36.47;19.17;;;;;;;17.12;43.73;102018.25;5073519;28;20089;-67
2022/03/19 08:56:44;;;;;;;26.85;17.30;;;;;;;17.02;42.70;102017.63;5092135;28;20078;-67
2022/03/19 08:59:09;;;;;;;32.67;17.95;;;;;;;17.54;44.06;102010.81;5107848;28;20064;-67
2022/03/19 09:01:36;;;;;;;29.85;17.50;;;;;;;17.99;42.35;102010.28;5083584;28;20760;-67
2022/03/19 09:04:02;;;;;;;29.60;16.85;;;;;;;17.53;41.68;102015.28;5107775;28;20111;-67
2022/03/19 09:06:28;;;;;;;32.42;17.45;;;;;;;17.03;40.83;102007.75;5094725;28;20028;-67
2022/03/19 09:08:53;;;;;;;30.90;18.02;;;;;;;17.42;41.24;102011.13;5087884;28;20035;-67
2022/03/19 09:11:20;;;;;;;31.52;17.48;;;;;;;17.42;41.70;102005.72;5101348;28;20065;-67
2022/03/19 09:13:47;;;;;;;32.17;18.38;;;;;;;17.67;41.65;102005.00;5103946;28;20535;-67
2022/03/19 09:16:14;;;;;;;36.25;16.55;;;;;;;17.72;41.10;101999.47;5110428;28;20024;-67
2022/03/19 09:18:39;;;;;;;30.63;16.05;;;;;;;17.89;40.23;101992.66;5091026;28;20625;-67
2022/03/19 09:21:05;;;;;;;30.80;17.13;;;;;;;17.85;40.21;101993.69;5094592;28;20102;-67
2022/03/19 09:23:30;;;;;;;31.42;16.08;;;;;;;18.42;40.50;101995.47;5098717;28;20088;-67
2022/03/19 09:25:56;;;;;;;32.40;17.35;;;;;;;17.95;39.55;101995.16;5109783;28;20027;-67
2022/03/19 09:28:21;;;;;;;30.85;15.68;;;;;;;17.80;40.13;101992.94;5096186;28;20043;-67
2022/03/19 09:30:47;;;;;;;29.70;16.00;;;;;;;17.96;40.71;101990.63;5091447;28;20032;-67
2022/03/19 09:33:13;;;;;;;30.10;15.38;;;;;;;18.58;38.95;101996.72;5110603;28;20076;-67
2022/03/19 09:35:38;;;;;;;30.63;16.48;;;;;;;18.08;39.44;101993.84;5110989;28;20385;-67
2022/03/19 09:38:04;;;;;;;33.03;17.40;;;;;;;18.16;40.03;101989.09;5111118;28;20027;-67
2022/03/19 09:40:29;;;;;;;30.90;15.65;;;;;;;18.22;39.28;101986.19;5110202;28;20020;-67
2022/03/19 09:42:59;;;;;;;30.02;15.98;;;;;;;18.00;38.67;101973.47;5102128;28;20038;-66
2022/03/19 09:45:27;;;;;;;31.10;17.00;;;;;;;18.02;39.03;101983.25;5109149;28;20106;-66
2022/03/19 09:47:54;;;;;;;33.70;16.15;;;;;;;17.91;39.10;101974.63;5093396;28;20020;-66
2022/03/19 09:50:20;;;;;;;30.63;15.98;;;;;;;17.91;39.12;101966.56;5090334;28;20024;-66
2022/03/19 09:52:51;;;;;;;28.05;15.13;;;;;;;17.92;38.55;101967.44;5099310;28;20475;-66
2022/03/19 09:55:18;;;;;;;27.35;14.63;;;;;;;17.99;39.41;101960.94;5090242;28;20106;-67
2022/03/19 09:57:44;;;;;;;29.00;15.02;;;;;;;18.08;38.49;101953.44;5095972;28;20031;-66
2022/03/19 10:00:11;;;;;;;30.02;15.05;;;;;;;18.12;38.15;101962.31;5098273;28;20393;-67
2022/03/19 10:02:59;;;;;;;28.33;15.43;;;;;;;18.31;39.06;101940.09;5076062;28;20399;-67
2022/03/19 10:11:00;;;;;;;27.75;14.60;;;;;;;18.83;35.85;101930.22;5090433;28;20035;-66
2022/03/19 10:13:26;;;;;;;29.23;15.98;;;;;;;18.64;37.46;101912.94;5098089;28;20035;-66
2022/03/19 10:15:52;;;;;;;26.08;15.70;;;;;;;19.03;36.48;101916.88;5105908;28;20043;-67
2022/03/19 10:18:17;;;;;;;27.25;15.10;;;;;;;18.63;35.25;101905.78;5102672;28;20044;-67
2022/03/19 10:20:44;;;;;;;29.38;14.65;;;;;;;18.67;36.38;101908.31;5089598;28;20035;-67
2022/03/19 10:23:10;;;;;;;29.08;14.30;;;;;;;19.14;35.76;101898.47;5090061;28;20118;-67
2022/03/19 10:25:35;;;;;;;31.20;15.77;;;;;;;19.24;35.93;101906.16;5097180;28;20028;-67
2022/03/19 10:28:08;;;;;;;24.42;13.75;;;;;;;19.35;35.52;101893.19;5099133;28;20399;-67
2022/03/19 10:30:36;;;;;;;29.85;15.80;;;;;;;19.66;35.79;101892.84;5109177;28;20061;-67
2022/03/19 10:33:02;;;;;;;26.42;14.48;;;;;;;19.66;34.95;101898.22;5095308;28;20131;-67
2022/03/19 10:35:30;;;;;;;27.60;14.45;;;;;;;19.84;35.53;101891.19;5089065;28;20099;-67
2022/03/19 10:37:57;;;;;;;26.70;14.98;;;;;;;19.82;34.23;101887.72;5105101;28;20027;-67
2022/03/19 10:40:39;;;;;;;30.40;15.35;;;;;;;19.69;34.01;101887.31;5094651;28;20043;-67
2022/03/19 10:43:07;;;;;;;28.45;14.65;;;;;;;19.81;34.44;101889.53;5109920;28;20092;-67
2022/03/19 10:45:33;;;;;;;26.17;14.88;;;;;;;20.08;34.54;101879.41;5108209;28;20387;-66
2022/03/19 10:48:01;;;;;;;23.95;14.25;;;;;;;19.98;33.93;101878.03;5108474;28;20027;-66
2022/03/19 10:50:26;;;;;;;27.63;14.13;;;;;;;19.83;34.50;101879.53;5109491;28;20147;-66
2022/03/19 10:52:52;;;;;;;26.73;14.02;;;;;;;20.00;33.98;101877.00;5093129;28;20496;-66
2022/03/19 10:55:19;;;;;;;28.40;14.30;;;;;;;20.06;34.83;101873.16;5091298;28;20024;-66
2022/03/19 10:57:45;;;;;;;23.20;14.70;;;;;;;20.46;34.52;101876.81;5097003;28;20027;-66
2022/03/19 11:00:12;;;;;;;25.52;14.45;;;;;;;20.03;35.11;101855.25;5109863;28;20023;-66
2022/03/19 11:02:48;;;;;;;27.83;15.95;;;;;;;20.65;36.61;101858.84;5089900;27;20815;-66
2022/03/19 11:05:17;;;;;;;29.58;13.50;;;;;;;21.09;34.86;101848.72;5090244;28;20024;-66
2022/03/19 11:07:44;;;;;;;25.23;14.32;;;;;;;21.12;34.46;101843.16;5089872;28;20035;-66
2022/03/19 11:10:11;;;;;;;24.42;14.70;;;;;;;20.94;34.75;101862.94;5092815;28;20043;-66
2022/03/19 11:12:40;;;;;;;27.40;15.25;;;;;;;20.56;35.36;101856.53;5104372;28;20132;-66
2022/03/19 11:15:09;;;;;;;25.08;14.25;;;;;;;20.90;35.83;101845.09;5102121;28;20031;-66
2022/03/19 11:17:37;;;;;;;29.85;15.27;;;;;;;20.58;33.98;101848.38;5099093;28;20131;-66
2022/03/19 11:20:06;;;;;;;24.70;14.23;;;;;;;20.89;34.96;101840.63;5108372;28;20036;-66
2022/03/19 11:22:41;;;;;;;30.05;14.73;;;;;;;20.97;34.30;101824.97;5101637;28;20035;-66
2022/03/19 11:25:30;;;;;;;27.10;14.85;;;;;;;20.55;35.21;101827.75;5094013;28;20410;-66
2022/03/19 11:28:07;;;;;;;26.25;14.38;;;;;;;20.67;35.07;101813.66;5101595;28;20054;-66
2022/03/19 11:30:34;;;;;;;27.48;15.07;;;;;;;20.54;35.65;101823.28;5092028;28;20032;-66